Main page
METAR-TAF:

METAR-TAF

Airports :

Warsaw Chopin Airport

Warsaw, Poland

latitude: 52-10N, longitude: 020-58E, elevation: 106 m

Current weather observation

The report was made 50 minutes ago, at 00:30 UTC
Wind 3 kt from the South
Temperature 12°C
Humidity 82%
Pressure 1023 hPa
Visibility 10 km or more
Broken clouds at a height of 4000 ft

METAR: EPWA 130030Z 19003KT 9999 BKN040 12/09 Q1023 NOSIG

Time: 03:20 (01:20 UTC)

Forecast

The report was made 1 hour and 50 minutes ago, at 23:30 UTC
Forecast valid from 13 at 00 UTC to 13 at 24 UTC
Wind 8 kt from the West/Southwest
Visibility 10 km or more
Broken clouds at a height of 3500 ft
Temporary
from 13 at 08 UTC to 13 at 17 UTC
Wind 15 kt from the West/Northwest with gusts up to 26 kt

TAF: EPWA 122330Z 1300/1324 25008KT 9999 BKN035 TEMPO 1308/1317 29015G26KT

Weather observations and forecasts of more than 4000 airports (METAR and TAF reports).

The available stations are represented by yellow and red dots on the map.

Hover mouse over dot to see the name of the station.

Then click to see weather observations and forecasts.

To change the map : click on the green buttons with a black cross to zoom in, on the green button with a dash to zoom out, or on the green arrows for adjacent maps.


METAR-TAF: